Time;durP1;ratioP1;P1;durP2;ratioP2;P2;SDS_P1;SDS_P2;PMS_P1;PMS_P2;Temp;Humidity;BMP_temperature;BMP_pressure;BME280_temperature;BME280_humidity;BME280_pressure;Samples;Min_cycle;Max_cycle;Signal;HPM_P1;HPM_P2
2022/07/29 00:01:56;;;;;;;5.53;1.55;;;14.10;99.90;;;;;;5042891;28;20210;-73
2022/07/29 00:04:21;;;;;;;4.38;1.52;;;14.10;99.90;;;;;;5042983;28;20171;-73
2022/07/29 00:06:47;;;;;;;5.00;1.42;;;14.10;99.90;;;;;;5042347;28;20057;-73
2022/07/29 00:09:13;;;;;;;4.90;1.45;;;14.10;99.90;;;;;;5027096;28;20187;-73
2022/07/29 00:11:38;;;;;;;6.28;2.00;;;14.10;99.90;;;;;;5043090;28;20032;-73
2022/07/29 00:14:04;;;;;;;5.70;1.60;;;14.20;99.90;;;;;;5041400;28;20143;-73
2022/07/29 00:16:30;;;;;;;5.15;1.55;;;14.10;99.90;;;;;;5044206;28;20045;-73
2022/07/29 00:18:55;;;;;;;4.18;1.60;;;14.10;99.90;;;;;;5041003;28;20051;-72
2022/07/29 00:21:21;;;;;;;4.18;1.40;;;14.10;99.90;;;;;;5029174;28;20420;-73
2022/07/29 00:23:47;;;;;;;4.93;1.42;;;14.10;99.90;;;;;;5043728;28;20053;-73
2022/07/29 00:26:12;;;;;;;4.03;1.23;;;14.10;99.90;;;;;;5026691;28;20537;-73
2022/07/29 00:28:38;;;;;;;8.93;1.55;;;14.10;99.90;;;;;;5044657;28;20130;-73
2022/07/29 00:31:04;;;;;;;4.85;1.52;;;14.10;99.90;;;;;;5043176;28;20512;-73
2022/07/29 00:33:29;;;;;;;8.57;1.73;;;14.10;99.90;;;;;;5041942;28;20045;-73
2022/07/29 00:35:55;;;;;;;5.78;1.42;;;14.10;99.90;;;;;;5043406;28;20135;-72
2022/07/29 00:38:21;;;;;;;6.55;1.60;;;14.10;99.90;;;;;;5028500;28;20474;-73
2022/07/29 00:40:47;;;;;;;4.65;1.50;;;14.10;99.90;;;;;;5040694;28;20102;-73
2022/07/29 00:43:14;;;;;;;4.47;1.60;;;14.20;99.90;;;;;;5043169;28;20127;-73
2022/07/29 00:45:43;;;;;;;6.85;1.50;;;14.00;99.90;;;;;;5026257;28;20191;-73
2022/07/29 00:48:09;;;;;;;4.47;1.90;;;14.10;99.90;;;;;;5040466;28;20147;-73
2022/07/29 00:50:36;;;;;;;5.97;1.60;;;14.10;99.90;;;;;;5042573;28;20407;-73
2022/07/29 00:53:03;;;;;;;5.03;1.65;;;14.20;99.90;;;;;;5039656;28;20120;-73
2022/07/29 00:55:29;;;;;;;4.50;1.60;;;14.20;99.90;;;;;;5060657;28;20120;-73
2022/07/29 00:57:56;;;;;;;4.88;1.67;;;14.20;99.90;;;;;;5037054;28;20512;-72
2022/07/29 01:00:24;;;;;;;4.18;1.40;;;14.20;99.90;;;;;;5046865;28;20056;-73
2022/07/29 01:02:50;;;;;;;8.40;1.75;;;14.20;99.90;;;;;;5026950;28;20096;-73
2022/07/29 01:05:22;;;;;;;4.72;1.60;;;14.20;99.90;;;;;;5047946;28;20076;-72
2022/07/29 01:07:51;;;;;;;5.82;1.45;;;14.20;99.90;;;;;;5042094;28;20076;-73
2022/07/29 01:10:19;;;;;;;6.47;1.60;;;14.20;99.90;;;;;;5069363;28;20489;-72
2022/07/29 01:12:49;;;;;;;3.67;1.63;;;14.20;99.90;;;;;;5052071;28;20071;-73
2022/07/29 01:15:15;;;;;;;5.38;1.77;;;14.30;99.90;;;;;;5068134;28;20040;-73
2022/07/29 01:17:51;;;;;;;5.15;1.67;;;14.20;99.90;;;;;;5059250;28;20447;-72
2022/07/29 01:20:35;;;;;;;5.15;1.67;;;14.30;99.90;;;;;;5041607;28;20135;-73
2022/07/29 01:23:13;;;;;;;8.20;1.60;;;14.30;99.90;;;;;;5024653;28;20072;-72
2022/07/29 01:25:49;;;;;;;7.25;1.40;;;14.30;99.90;;;;;;5042892;28;20052;-71
2022/07/29 01:28:43;;;;;;;5.03;1.48;;;14.30;99.90;;;;;;5041774;28;20916;-73
2022/07/29 01:31:10;;;;;;;6.43;1.60;;;14.30;99.90;;;;;;5049457;28;20683;-72
2022/07/29 01:33:49;;;;;;;7.78;1.60;;;14.40;99.90;;;;;;5063648;28;20056;-73
2022/07/29 01:36:39;;;;;;;5.05;1.80;;;14.40;99.90;;;;;;5048236;28;20056;-71
2022/07/29 01:39:23;;;;;;;4.50;1.83;;;14.40;99.90;;;;;;5052349;28;20068;-72
2022/07/29 01:42:00;;;;;;;7.75;1.88;;;14.30;99.90;;;;;;5033463;28;20049;-73
2022/07/29 01:44:37;;;;;;;6.03;1.60;;;14.40;99.90;;;;;;5031172;28;20521;-73
2022/07/29 01:47:15;;;;;;;6.18;1.63;;;14.30;99.90;;;;;;5030611;28;20387;-73
2022/07/29 01:49:46;;;;;;;5.00;1.85;;;14.30;99.90;;;;;;5029368;28;20071;-73
2022/07/29 01:52:33;;;;;;;4.80;1.80;;;14.30;99.90;;;;;;5061897;28;20046;-73
2022/07/29 01:55:04;;;;;;;6.03;1.75;;;14.20;99.90;;;;;;5030188;28;20102;-73
2022/07/29 01:57:33;;;;;;;7.50;1.75;;;14.20;99.90;;;;;;5029503;28;20444;-73
2022/07/29 02:00:00;;;;;;;4.63;1.85;;;14.30;99.90;;;;;;5030279;28;20099;-72
2022/07/29 02:02:29;;;;;;;4.97;1.90;;;14.20;99.90;;;;;;5043782;28;20115;-73
2022/07/29 02:04:57;;;;;;;10.15;1.60;;;14.20;99.90;;;;;;5030825;28;20114;-73
2022/07/29 02:07:26;;;;;;;5.10;1.98;;;14.20;99.90;;;;;;5046535;28;20106;-73
2022/07/29 02:09:53;;;;;;;8.25;1.90;;;14.10;99.90;;;;;;5047393;28;20057;-73
2022/07/29 02:12:20;;;;;;;6.45;2.10;;;14.20;99.90;;;;;;5046183;28;20486;-73
2022/07/29 02:14:50;;;;;;;9.13;2.15;;;14.20;99.90;;;;;;5046926;28;20553;-72
2022/07/29 02:17:26;;;;;;;9.43;1.77;;;14.20;99.90;;;;;;5043434;28;20497;-73
2022/07/29 02:19:56;;;;;;;9.50;2.03;;;14.20;99.90;;;;;;5049138;28;20067;-72
2022/07/29 02:22:23;;;;;;;5.28;1.90;;;14.20;99.90;;;;;;5048461;28;20097;-73
2022/07/29 02:24:51;;;;;;;5.22;1.80;;;14.20;99.90;;;;;;5044294;28;20045;-72
2022/07/29 02:27:19;;;;;;;5.40;1.80;;;14.20;99.90;;;;;;5046434;28;20482;-73
2022/07/29 02:29:47;;;;;;;5.55;1.83;;;14.20;99.90;;;;;;5046472;28;20045;-73
2022/07/29 02:32:15;;;;;;;4.88;1.73;;;14.20;99.90;;;;;;5046979;28;20037;-73
2022/07/29 02:34:42;;;;;;;6.03;1.65;;;14.30;99.90;;;;;;5029638;28;20522;-73
2022/07/29 02:37:10;;;;;;;6.90;1.67;;;14.30;99.90;;;;;;5047180;28;20395;-73
2022/07/29 02:39:37;;;;;;;7.47;2.08;;;14.30;99.90;;;;;;5047909;28;20049;-73
2022/07/29 02:42:09;;;;;;;6.82;1.80;;;14.30;99.90;;;;;;5045380;28;20047;-73
2022/07/29 02:44:36;;;;;;;5.05;2.10;;;14.30;99.90;;;;;;5031375;28;20064;-73
2022/07/29 02:47:16;;;;;;;8.60;1.65;;;14.30;99.90;;;;;;5029968;28;20049;-73
2022/07/29 02:50:08;;;;;;;5.63;1.60;;;14.30;99.90;;;;;;5045342;28;20048;-73
2022/07/29 02:53:11;;;;;;;5.25;1.70;;;14.30;99.90;;;;;;5046837;28;20132;-73
2022/07/29 02:55:51;;;;;;;8.30;2.20;;;14.30;99.90;;;;;;5026789;28;20051;-73
2022/07/29 02:58:34;;;;;;;6.70;2.00;;;14.30;99.90;;;;;;5023992;28;20044;-73
2022/07/29 03:01:24;;;;;;;5.25;1.90;;;14.20;99.90;;;;;;5027468;28;20102;-73
2022/07/29 03:03:53;;;;;;;6.53;1.80;;;14.30;99.90;;;;;;5049569;28;20056;-74
2022/07/29 03:06:24;;;;;;;7.22;1.80;;;14.20;99.90;;;;;;5046464;28;20045;-73
2022/07/29 03:08:51;;;;;;;7.03;1.90;;;14.30;99.90;;;;;;5027534;28;20044;-73
2022/07/29 03:11:18;;;;;;;4.47;1.70;;;14.30;99.90;;;;;;5030032;28;20057;-73
2022/07/29 03:13:44;;;;;;;8.57;2.10;;;14.20;99.90;;;;;;5028727;28;20041;-73
2022/07/29 03:16:12;;;;;;;8.00;1.85;;;14.30;99.90;;;;;;5043748;28;20052;-73
2022/07/29 03:18:38;;;;;;;6.70;1.90;;;14.20;99.90;;;;;;5046258;28;20040;-73
2022/07/29 03:21:04;;;;;;;4.68;1.85;;;14.20;99.90;;;;;;5045079;28;20041;-73
2022/07/29 03:23:30;;;;;;;5.32;1.65;;;14.20;99.90;;;;;;5041894;28;20040;-73
2022/07/29 03:25:56;;;;;;;5.38;1.83;;;14.20;99.90;;;;;;5029102;28;20128;-73
2022/07/29 03:28:22;;;;;;;7.30;1.83;;;14.20;99.90;;;;;;5044835;28;20041;-73
2022/07/29 03:30:49;;;;;;;6.95;1.75;;;14.20;99.90;;;;;;5042433;28;20041;-73
2022/07/29 03:33:15;;;;;;;5.13;1.67;;;14.30;99.90;;;;;;5044954;28;20037;-73
2022/07/29 03:35:41;;;;;;;7.20;1.67;;;14.20;99.90;;;;;;5042697;28;20059;-73
2022/07/29 03:38:07;;;;;;;5.78;1.88;;;14.20;99.90;;;;;;5042235;28;20047;-73
2022/07/29 03:40:46;;;;;;;5.43;1.70;;;14.20;99.90;;;;;;5046746;28;20049;-73
2022/07/29 03:43:14;;;;;;;9.10;1.85;;;14.20;99.90;;;;;;5043733;28;20084;-73
2022/07/29 03:45:44;;;;;;;6.13;1.80;;;14.20;99.90;;;;;;5039464;28;20071;-73
2022/07/29 03:48:13;;;;;;;4.88;1.52;;;14.20;99.90;;;;;;5025810;28;20045;-72
2022/07/29 03:50:39;;;;;;;8.50;1.83;;;14.20;99.90;;;;;;5029246;28;20048;-73
2022/07/29 03:53:05;;;;;;;8.02;1.70;;;14.20;99.90;;;;;;5029100;28;20045;-74
2022/07/29 03:55:37;;;;;;;9.88;1.70;;;14.20;99.90;;;;;;5025163;28;20056;-73
2022/07/29 03:58:03;;;;;;;5.75;2.03;;;14.30;99.90;;;;;;5045020;28;20037;-73
2022/07/29 04:00:30;;;;;;;7.00;1.77;;;14.30;99.90;;;;;;5045184;28;20052;-73
2022/07/29 04:02:56;;;;;;;4.97;1.40;;;14.30;99.90;;;;;;5044044;28;20044;-73
2022/07/29 04:05:22;;;;;;;5.70;1.50;;;14.30;99.90;;;;;;5026579;28;20053;-73
2022/07/29 04:07:51;;;;;;;5.00;1.50;;;14.30;99.90;;;;;;5041909;28;20052;-73
2022/07/29 04:10:17;;;;;;;4.93;1.52;;;14.30;99.90;;;;;;5043958;28;20036;-73
2022/07/29 04:12:43;;;;;;;7.18;1.90;;;14.40;99.90;;;;;;5025722;28;20436;-73
2022/07/29 04:15:09;;;;;;;8.57;1.65;;;14.30;99.90;;;;;;5042902;28;20040;-73
2022/07/29 04:17:35;;;;;;;10.90;1.80;;;14.30;99.90;;;;;;5043503;28;20398;-72
2022/07/29 04:20:00;;;;;;;6.35;1.55;;;14.40;99.90;;;;;;5040552;28;20040;-73
2022/07/29 04:22:26;;;;;;;5.65;1.77;;;14.40;99.90;;;;;;5034355;28;20410;-73
2022/07/29 04:24:52;;;;;;;5.63;1.60;;;14.40;99.90;;;;;;5031501;28;20095;-73
2022/07/29 04:27:17;;;;;;;5.22;1.80;;;14.40;99.90;;;;;;5018718;28;20528;-72
2022/07/29 04:29:43;;;;;;;4.80;1.70;;;14.40;99.90;;;;;;5042419;28;20044;-73
2022/07/29 04:32:09;;;;;;;6.50;1.70;;;14.40;99.90;;;;;;5044048;28;20105;-73
2022/07/29 04:34:34;;;;;;;8.38;1.83;;;14.40;99.90;;;;;;5058739;28;20045;-73
2022/07/29 04:37:00;;;;;;;7.53;1.70;;;14.50;99.90;;;;;;5026421;28;20226;-73
2022/07/29 04:39:26;;;;;;;6.13;2.10;;;14.40;99.90;;;;;;5054421;28;20087;-73
2022/07/29 04:41:51;;;;;;;5.65;1.40;;;14.50;99.90;;;;;;5039821;28;20051;-73
2022/07/29 04:44:17;;;;;;;4.65;1.60;;;14.50;99.90;;;;;;5040608;28;20072;-73
2022/07/29 04:46:46;;;;;;;5.85;1.70;;;14.50;99.90;;;;;;5041447;28;20059;-73
2022/07/29 04:49:11;;;;;;;6.85;1.60;;;14.50;99.90;;;;;;5023748;28;20049;-72
2022/07/29 04:51:37;;;;;;;8.27;1.60;;;14.50;99.90;;;;;;5025950;28;20066;-73
2022/07/29 04:54:03;;;;;;;7.18;2.20;;;14.60;99.90;;;;;;5038943;28;20055;-73
2022/07/29 04:56:29;;;;;;;8.25;1.70;;;14.60;99.90;;;;;;5038205;28;20046;-74
2022/07/29 04:58:54;;;;;;;4.90;1.83;;;14.60;99.90;;;;;;5039560;28;20052;-72
2022/07/29 05:01:20;;;;;;;4.80;1.92;;;14.60;99.90;;;;;;5021123;28;20098;-73
2022/07/29 05:03:46;;;;;;;6.10;1.58;;;14.70;99.90;;;;;;5020622;28;20061;-73
2022/07/29 05:06:11;;;;;;;4.30;1.30;;;14.70;99.90;;;;;;5043523;28;20045;-73
2022/07/29 05:08:37;;;;;;;6.43;1.50;;;14.70;99.90;;;;;;5041760;28;20041;-73
2022/07/29 05:11:03;;;;;;;8.20;1.80;;;14.80;99.90;;;;;;5041919;28;20049;-73
2022/07/29 05:13:29;;;;;;;5.28;1.80;;;14.90;99.90;;;;;;5041180;28;20051;-73
2022/07/29 05:15:55;;;;;;;8.57;1.83;;;14.80;99.90;;;;;;5042575;28;20049;-73
2022/07/29 05:18:21;;;;;;;5.30;1.52;;;14.90;99.90;;;;;;5043595;28;20043;-73
2022/07/29 05:20:47;;;;;;;8.05;2.40;;;14.90;99.90;;;;;;5045967;28;20372;-73
2022/07/29 05:23:12;;;;;;;5.50;1.60;;;15.00;99.90;;;;;;5043749;28;20040;-73
2022/07/29 05:25:38;;;;;;;6.25;1.63;;;15.00;99.90;;;;;;5042083;28;20170;-72
2022/07/29 05:28:04;;;;;;;6.78;1.50;;;15.10;99.90;;;;;;5026664;28;20528;-73
2022/07/29 05:30:30;;;;;;;5.68;2.38;;;15.10;99.90;;;;;;5026109;28;20076;-72
2022/07/29 05:32:55;;;;;;;7.25;1.77;;;15.20;99.90;;;;;;5041862;28;20037;-71
2022/07/29 05:35:21;;;;;;;4.63;1.45;;;15.20;99.90;;;;;;5041583;28;20087;-72
2022/07/29 05:37:47;;;;;;;8.25;2.10;;;15.30;99.90;;;;;;5045798;28;20041;-72
2022/07/29 05:40:12;;;;;;;6.22;1.70;;;15.30;99.90;;;;;;5023349;28;20044;-73
2022/07/29 05:42:38;;;;;;;5.88;1.60;;;15.40;99.90;;;;;;5022346;28;20497;-72
2022/07/29 05:45:04;;;;;;;7.82;1.80;;;15.30;99.90;;;;;;5043641;28;20562;-72
2022/07/29 05:47:30;;;;;;;8.95;1.50;;;15.40;99.90;;;;;;5048871;28;20402;-73
2022/07/29 05:49:56;;;;;;;4.90;1.55;;;15.70;99.90;;;;;;5025884;28;20037;-73
2022/07/29 05:52:22;;;;;;;9.25;1.90;;;15.60;99.90;;;;;;5046324;28;20079;-73
2022/07/29 05:54:47;;;;;;;9.23;1.90;;;15.60;99.90;;;;;;5040008;28;20044;-73
2022/07/29 05:57:22;;;;;;;9.70;1.55;;;15.70;99.90;;;;;;5041627;28;20041;-73
2022/07/29 05:59:49;;;;;;;10.98;1.70;;;15.70;99.90;;;;;;5043114;28;20563;-73
2022/07/29 06:02:16;;;;;;;6.53;1.60;;;15.70;99.90;;;;;;5042337;28;20249;-72
2022/07/29 06:04:42;;;;;;;9.05;1.85;;;15.80;99.90;;;;;;5041997;28;20132;-73
2022/07/29 06:07:08;;;;;;;7.90;2.00;;;15.90;99.90;;;;;;5042785;28;20137;-73
2022/07/29 06:09:34;;;;;;;4.40;1.40;;;15.90;99.90;;;;;;5043010;28;20045;-73
2022/07/29 06:12:00;;;;;;;7.47;1.52;;;16.00;99.90;;;;;;5038269;28;20051;-73
2022/07/29 06:14:26;;;;;;;7.78;1.65;;;16.00;99.90;;;;;;5042955;28;20124;-73
2022/07/29 06:16:52;;;;;;;7.93;1.60;;;16.20;99.90;;;;;;5042183;28;20051;-73
2022/07/29 06:19:19;;;;;;;7.97;1.75;;;16.20;99.90;;;;;;5042394;28;20090;-73
2022/07/29 06:21:46;;;;;;;4.22;1.50;;;16.30;99.90;;;;;;5042413;28;20049;-73
2022/07/29 06:24:13;;;;;;;7.13;1.70;;;16.40;99.90;;;;;;5044453;28;20041;-73
2022/07/29 06:26:39;;;;;;;5.63;2.22;;;16.40;99.90;;;;;;5040394;28;20176;-72
2022/07/29 06:29:06;;;;;;;6.38;2.15;;;16.60;99.90;;;;;;5037923;28;20079;-73
2022/07/29 06:31:32;;;;;;;8.35;1.65;;;16.60;99.90;;;;;;5044964;28;20060;-73
2022/07/29 06:33:58;;;;;;;8.50;1.58;;;16.70;99.90;;;;;;5043792;28;20045;-73
2022/07/29 06:36:23;;;;;;;7.45;1.75;;;16.80;99.90;;;;;;5041343;28;20045;-73
2022/07/29 06:38:49;;;;;;;7.82;1.70;;;16.90;99.90;;;;;;5041927;28;20048;-73
2022/07/29 06:41:15;;;;;;;8.85;1.85;;;17.00;99.90;;;;;;5044550;28;20053;-73
2022/07/29 06:43:43;;;;;;;7.72;1.60;;;17.00;99.90;;;;;;5046178;28;20036;-72
2022/07/29 06:46:14;;;;;;;5.53;1.85;;;17.10;99.90;;;;;;5048330;28;20049;-72
2022/07/29 06:48:42;;;;;;;8.35;1.77;;;17.20;99.90;;;;;;5047113;28;20071;-72
2022/07/29 06:51:08;;;;;;;7.63;1.80;;;17.20;99.90;;;;;;5060438;28;20108;-73
2022/07/29 06:53:35;;;;;;;9.68;1.80;;;17.20;99.90;;;;;;5044152;28;20076;-74
2022/07/29 06:56:03;;;;;;;9.45;1.92;;;17.20;99.90;;;;;;5044247;28;20481;-73
2022/07/29 06:58:30;;;;;;;6.13;1.70;;;17.20;99.90;;;;;;5043938;28;20091;-73
2022/07/29 07:01:00;;;;;;;6.57;1.60;;;17.30;99.90;;;;;;5065370;28;20060;-73
2022/07/29 07:03:26;;;;;;;12.25;2.15;;;17.40;99.90;;;;;;5032488;28;20860;-74
2022/07/29 07:05:53;;;;;;;7.07;1.45;;;17.40;99.90;;;;;;5043532;28;20129;-73
2022/07/29 07:08:20;;;;;;;8.52;1.77;;;17.40;99.90;;;;;;5041501;28;20120;-73
2022/07/29 07:10:46;;;;;;;8.57;1.52;;;17.40;99.90;;;;;;5042693;28;20115;-73
2022/07/29 07:13:12;;;;;;;6.53;1.60;;;17.70;99.90;;;;;;5041297;28;20041;-73
2022/07/29 07:15:38;;;;;;;7.38;1.70;;;17.70;99.90;;;;;;5044319;28;20401;-73
2022/07/29 07:18:05;;;;;;;6.65;1.63;;;17.80;99.90;;;;;;5042338;28;20501;-74
2022/07/29 07:20:32;;;;;;;6.35;1.80;;;17.80;99.90;;;;;;5040725;28;20057;-73
2022/07/29 07:22:58;;;;;;;7.65;1.90;;;17.90;99.90;;;;;;5040021;28;20107;-73
2022/07/29 07:25:24;;;;;;;7.78;1.73;;;17.90;99.90;;;;;;5024839;28;20091;-73
2022/07/29 07:27:52;;;;;;;7.78;1.90;;;17.90;99.90;;;;;;5037843;28;20136;-73
2022/07/29 07:30:17;;;;;;;7.57;1.95;;;17.90;99.90;;;;;;5022439;28;20437;-73
2022/07/29 07:32:43;;;;;;;3.97;1.70;;;18.00;99.90;;;;;;5020471;28;20049;-74
2022/07/29 07:35:09;;;;;;;10.82;1.90;;;18.20;99.90;;;;;;5022198;28;20073;-73
2022/07/29 07:37:35;;;;;;;8.30;1.58;;;18.10;99.90;;;;;;5041090;28;20410;-73
2022/07/29 07:40:01;;;;;;;4.68;1.70;;;18.40;99.90;;;;;;5031083;28;20055;-74
2022/07/29 07:42:27;;;;;;;6.38;1.67;;;18.50;99.90;;;;;;5033308;28;20049;-73
2022/07/29 07:44:53;;;;;;;11.30;1.95;;;18.50;99.90;;;;;;5043020;28;20094;-73
2022/07/29 07:47:19;;;;;;;7.13;1.83;;;18.60;99.90;;;;;;5041562;28;20037;-73
2022/07/29 07:49:47;;;;;;;7.68;1.48;;;18.60;99.90;;;;;;5038017;28;20041;-73
2022/07/29 07:52:13;;;;;;;7.57;1.80;;;18.70;99.90;;;;;;5040022;28;20045;-72
2022/07/29 07:54:39;;;;;;;7.05;1.60;;;18.90;99.90;;;;;;5057240;28;20474;-72
2022/07/29 07:57:04;;;;;;;6.40;2.03;;;18.90;99.90;;;;;;5034012;28;20094;-73
2022/07/29 07:59:30;;;;;;;8.23;1.98;;;19.00;99.90;;;;;;5039027;28;20079;-72
2022/07/29 08:01:56;;;;;;;4.28;1.50;;;19.00;99.90;;;;;;5021483;28;20654;-73
2022/07/29 08:04:22;;;;;;;6.82;1.40;;;19.00;99.90;;;;;;5035095;28;20060;-73
2022/07/29 08:06:49;;;;;;;8.18;2.00;;;19.00;99.90;;;;;;5036866;28;20744;-73
2022/07/29 08:09:15;;;;;;;5.07;1.40;;;18.90;99.90;;;;;;5037733;28;20395;-73
2022/07/29 08:11:41;;;;;;;8.57;1.75;;;18.90;99.90;;;;;;5040373;28;20052;-73
2022/07/29 08:14:06;;;;;;;6.30;1.50;;;18.90;99.90;;;;;;5039818;28;20044;-73
2022/07/29 08:16:32;;;;;;;8.13;2.10;;;18.80;99.90;;;;;;5039877;28;20132;-73
2022/07/29 08:18:58;;;;;;;9.25;2.00;;;18.80;99.90;;;;;;5042257;28;20045;-73
2022/07/29 08:21:24;;;;;;;6.45;1.95;;;18.80;99.90;;;;;;5040930;28;20044;-73
2022/07/29 08:23:52;;;;;;;8.18;1.85;;;18.80;99.90;;;;;;5022449;28;20049;-73
2022/07/29 08:26:19;;;;;;;9.57;2.10;;;18.80;99.90;;;;;;5035499;28;20112;-74
2022/07/29 08:28:49;;;;;;;5.80;1.88;;;18.70;99.90;;;;;;5024663;28;20044;-73
2022/07/29 08:31:15;;;;;;;6.75;1.75;;;18.70;99.90;;;;;;5056739;28;20646;-72
2022/07/29 08:33:40;;;;;;;9.32;1.98;;;18.60;99.90;;;;;;5040108;28;20151;-72
2022/07/29 08:36:06;;;;;;;5.40;1.70;;;18.60;99.90;;;;;;5052719;28;20067;-73
2022/07/29 08:38:33;;;;;;;5.38;1.60;;;18.60;99.90;;;;;;5036057;28;20102;-73
2022/07/29 08:41:00;;;;;;;6.28;1.80;;;18.60;99.90;;;;;;5039966;28;20475;-73
2022/07/29 08:43:27;;;;;;;9.60;1.92;;;18.60;99.90;;;;;;5040288;28;20098;-73
2022/07/29 08:45:53;;;;;;;6.75;2.10;;;18.70;99.90;;;;;;5036291;28;20048;-73
2022/07/29 08:48:23;;;;;;;5.72;1.80;;;18.70;99.90;;;;;;5039287;28;20052;-72
2022/07/29 08:50:58;;;;;;;3.85;1.67;;;18.70;99.90;;;;;;5022732;28;20052;-73
2022/07/29 08:53:27;;;;;;;9.55;2.08;;;18.70;99.90;;;;;;5036916;28;20041;-73
2022/07/29 08:55:54;;;;;;;5.18;1.80;;;18.80;99.90;;;;;;5037851;28;20102;-72
2022/07/29 08:58:21;;;;;;;6.85;1.50;;;18.70;99.90;;;;;;5036079;28;20041;-73
2022/07/29 09:00:53;;;;;;;6.45;1.77;;;18.70;99.90;;;;;;5034397;28;20820;-73
2022/07/29 09:03:23;;;;;;;6.65;1.90;;;18.80;99.90;;;;;;5056013;28;20136;-72
2022/07/29 09:05:50;;;;;;;8.00;1.70;;;18.90;99.90;;;;;;5038438;28;20045;-73
2022/07/29 09:08:17;;;;;;;8.00;2.00;;;18.90;99.90;;;;;;5040766;28;20473;-73
2022/07/29 09:10:44;;;;;;;9.40;1.98;;;19.00;99.90;;;;;;5055260;28;20136;-73
2022/07/29 09:13:09;;;;;;;5.75;1.70;;;19.10;99.90;;;;;;5040224;28;20052;-73
2022/07/29 09:15:35;;;;;;;7.35;1.90;;;19.20;99.90;;;;;;5038960;28;20045;-73
2022/07/29 09:18:02;;;;;;;7.88;2.10;;;19.30;99.90;;;;;;5034625;28;21084;-72
2022/07/29 09:23:13;;;;;;;5.63;1.90;;;19.50;99.90;;;;;;5036355;28;21235;-72
2022/07/29 09:25:40;;;;;;;7.05;1.95;;;19.50;99.90;;;;;;5043366;28;20049;-72
2022/07/29 09:28:24;;;;;;;8.50;2.10;;;19.50;99.90;;;;;;5026053;28;20138;-73
2022/07/29 09:30:58;;;;;;;6.75;2.03;;;19.60;99.90;;;;;;5042243;28;20041;-73
2022/07/29 09:33:31;;;;;;;8.77;2.22;;;19.90;99.90;;;;;;5041528;28;20045;-73
2022/07/29 09:36:05;;;;;;;7.38;1.70;;;19.90;99.90;;;;;;5049653;28;20041;-73
2022/07/29 09:38:32;;;;;;;7.90;1.92;;;20.10;99.90;;;;;;5041883;28;20076;-72
2022/07/29 09:40:59;;;;;;;9.38;2.40;;;20.20;99.90;;;;;;5046656;28;20385;-73
2022/07/29 09:43:26;;;;;;;6.40;2.17;;;20.10;99.90;;;;;;5037095;28;20045;-73
2022/07/29 09:45:52;;;;;;;8.30;2.03;;;20.10;99.90;;;;;;5039453;28;20040;-73
2022/07/29 09:48:21;;;;;;;7.28;1.90;;;20.10;99.90;;;;;;5028312;28;20064;-72
2022/07/29 09:50:49;;;;;;;7.18;1.98;;;20.20;99.90;;;;;;5035205;28;20072;-73
2022/07/29 09:53:36;;;;;;;7.55;2.20;;;20.20;99.90;;;;;;5037913;28;20041;-72
2022/07/29 09:56:05;;;;;;;13.68;2.10;;;20.20;99.90;;;;;;5023603;28;20045;-75
2022/07/29 09:58:33;;;;;;;5.95;2.03;;;20.10;99.90;;;;;;5056317;28;20455;-74
2022/07/29 10:00:59;;;;;;;5.68;2.13;;;19.90;99.90;;;;;;5045729;28;20414;-73
2022/07/29 10:03:26;;;;;;;9.68;1.95;;;19.90;99.90;;;;;;5030092;28;20075;-73
2022/07/29 10:06:09;;;;;;;7.82;2.10;;;19.70;99.90;;;;;;5013064;28;20624;-74
2022/07/29 10:08:35;;;;;;;12.55;2.35;;;19.70;99.90;;;;;;5020369;28;20057;-73
2022/07/29 10:11:16;;;;;;;5.10;1.63;;;19.60;99.90;;;;;;5036934;28;20128;-74
2022/07/29 10:13:44;;;;;;;5.35;2.20;;;19.60;99.90;;;;;;5038758;28;20049;-74
2022/07/29 10:16:10;;;;;;;9.85;2.63;;;19.60;99.90;;;;;;5015958;28;20045;-73
2022/07/29 10:18:39;;;;;;;10.98;2.20;;;19.70;99.90;;;;;;5027775;28;20525;-73
2022/07/29 10:21:05;;;;;;;5.82;2.03;;;19.80;99.90;;;;;;5031990;28;20607;-74
2022/07/29 10:23:31;;;;;;;6.38;1.92;;;19.90;99.90;;;;;;5031621;28;20044;-73
2022/07/29 10:25:57;;;;;;;6.32;1.95;;;20.10;99.90;;;;;;5035223;28;20041;-74
2022/07/29 10:28:24;;;;;;;8.57;2.35;;;20.20;99.90;;;;;;5038136;28;20048;-73
2022/07/29 10:30:51;;;;;;;8.35;2.20;;;20.30;99.90;;;;;;5037207;28;20744;-74
2022/07/29 10:33:37;;;;;;;9.65;1.92;;;20.30;99.90;;;;;;5035828;28;20040;-74
2022/07/29 10:36:32;;;;;;;9.68;2.30;;;20.20;99.90;;;;;;5037387;28;20045;-73
2022/07/29 10:39:42;;;;;;;8.90;2.78;;;20.20;99.90;;;;;;5046363;28;20088;-73
2022/07/29 10:42:19;;;;;;;5.70;1.92;;;20.20;99.90;;;;;;4998410;28;20047;-73
2022/07/29 10:44:45;;;;;;;5.70;2.00;;;20.10;99.90;;;;;;4998004;28;20104;-73
2022/07/29 10:47:26;;;;;;;8.63;2.20;;;20.10;99.90;;;;;;5010466;28;20064;-73
2022/07/29 10:50:04;;;;;;;6.90;1.77;;;20.20;99.90;;;;;;5021927;28;20045;-73
2022/07/29 10:52:48;;;;;;;5.85;2.17;;;20.20;99.90;;;;;;5036553;28;20156;-73
2022/07/29 10:55:42;;;;;;;7.35;2.40;;;20.30;99.90;;;;;;5034100;28;20045;-74
2022/07/29 10:58:14;;;;;;;11.88;2.10;;;20.50;99.90;;;;;;5039095;28;20094;-74
2022/07/29 11:00:40;;;;;;;7.03;2.30;;;20.60;99.90;;;;;;5036499;28;20048;-73
2022/07/29 11:03:06;;;;;;;10.50;2.30;;;20.70;99.90;;;;;;5018697;28;20126;-74
2022/07/29 11:05:52;;;;;;;7.32;2.22;;;21.00;99.90;;;;;;5039481;28;20486;-74
2022/07/29 11:08:22;;;;;;;9.68;2.17;;;21.30;99.90;;;;;;5037884;28;20055;-73
2022/07/29 11:10:53;;;;;;;9.68;2.60;;;21.50;99.90;;;;;;5035777;28;20049;-74
2022/07/29 11:13:43;;;;;;;7.27;2.73;;;21.70;99.90;;;;;;5033607;28;20037;-74
2022/07/29 11:16:09;;;;;;;10.20;2.35;;;21.70;99.90;;;;;;5032715;28;20266;-74
2022/07/29 11:18:35;;;;;;;9.88;2.40;;;21.70;99.90;;;;;;5034083;28;20060;-74
2022/07/29 11:21:00;;;;;;;7.25;2.58;;;21.70;99.90;;;;;;5016053;28;20037;-74
2022/07/29 11:23:32;;;;;;;7.85;2.17;;;21.60;99.90;;;;;;5033235;28;20045;-73
2022/07/29 11:26:23;;;;;;;7.60;2.05;;;21.50;99.90;;;;;;5029258;28;20044;-72
2022/07/29 11:29:11;;;;;;;8.18;2.15;;;21.50;99.90;;;;;;5026603;28;20923;-71
2022/07/29 11:31:39;;;;;;;7.40;2.35;;;21.40;99.90;;;;;;5032949;28;20655;-74
2022/07/29 11:34:29;;;;;;;5.70;2.03;;;21.50;99.90;;;;;;5030706;28;20983;-74
2022/07/29 11:37:11;;;;;;;6.60;2.00;;;21.50;99.90;;;;;;5036252;28;20047;-73
2022/07/29 11:39:52;;;;;;;9.15;2.35;;;21.60;99.90;;;;;;5032158;28;20521;-75
2022/07/29 11:42:24;;;;;;;8.25;2.25;;;21.50;99.90;;;;;;5033780;28;21072;-73
2022/07/29 11:44:59;;;;;;;7.85;1.95;;;21.40;99.90;;;;;;5034779;28;20044;-73
2022/07/29 11:47:29;;;;;;;7.38;2.28;;;21.40;99.90;;;;;;5036108;28;20650;-73
2022/07/29 11:49:59;;;;;;;7.80;2.20;;;21.30;99.90;;;;;;5017873;28;20095;-74
2022/07/29 11:52:46;;;;;;;8.70;2.30;;;21.40;99.90;;;;;;5035915;28;20126;-74
2022/07/29 11:55:23;;;;;;;9.20;2.30;;;21.40;99.90;;;;;;5033712;28;20052;-73
2022/07/29 11:57:53;;;;;;;9.25;2.40;;;21.50;99.90;;;;;;5035162;28;20036;-73
2022/07/29 12:00:25;;;;;;;7.57;2.35;;;21.50;99.90;;;;;;5038614;28;20128;-73
2022/07/29 12:02:52;;;;;;;8.02;2.28;;;21.50;99.90;;;;;;5016664;28;20144;-73
2022/07/29 12:05:18;;;;;;;8.82;2.20;;;21.70;99.90;;;;;;5054231;28;20088;-73
2022/07/29 12:07:48;;;;;;;6.72;2.25;;;21.70;99.90;;;;;;5038225;28;20122;-74
2022/07/29 12:10:14;;;;;;;13.32;2.70;;;22.00;99.90;;;;;;5015367;28;20561;-74
2022/07/29 12:12:40;;;;;;;11.35;2.72;;;22.20;99.90;;;;;;5038614;28;20044;-74
2022/07/29 12:15:13;;;;;;;6.85;2.40;;;22.50;99.90;;;;;;5038224;28;20045;-74
2022/07/29 12:17:40;;;;;;;8.60;2.65;;;22.70;99.90;;;;;;5044440;28;20095;-74
2022/07/29 12:20:06;;;;;;;7.47;2.58;;;22.80;99.90;;;;;;5027461;28;20770;-74
2022/07/29 12:22:36;;;;;;;9.02;2.25;;;22.80;99.90;;;;;;5035587;28;20056;-74
2022/07/29 12:25:09;;;;;;;8.93;2.70;;;23.00;99.90;;;;;;5029241;28;20530;-74
2022/07/29 12:27:35;;;;;;;11.20;2.38;;;23.30;99.90;;;;;;5032313;28;20041;-74
2022/07/29 12:30:09;;;;;;;6.22;2.17;;;23.50;99.90;;;;;;5031308;28;20045;-74
2022/07/29 12:32:37;;;;;;;8.88;2.55;;;23.90;99.90;;;;;;5027573;28;20098;-74
2022/07/29 12:35:09;;;;;;;7.72;2.55;;;24.20;99.90;;;;;;5028927;28;20044;-75
2022/07/29 12:37:36;;;;;;;8.70;2.47;;;24.20;99.90;;;;;;5028402;28;21079;-74
2022/07/29 12:40:07;;;;;;;7.78;2.53;;;24.20;99.90;;;;;;5012246;28;20077;-74
2022/07/29 12:42:34;;;;;;;6.45;2.17;;;24.20;99.90;;;;;;5043585;28;20056;-74
2022/07/29 12:45:01;;;;;;;8.80;2.40;;;24.40;99.90;;;;;;5014829;28;20509;-75
2022/07/29 12:47:27;;;;;;;7.18;2.22;;;24.50;99.90;;;;;;5011005;28;20512;-73
2022/07/29 12:50:17;;;;;;;6.22;2.13;;;24.70;99.90;;;;;;5018087;28;20049;-74
2022/07/29 12:52:44;;;;;;;8.17;2.50;;;24.70;99.90;;;;;;5034377;28;20079;-74
2022/07/29 12:55:11;;;;;;;7.90;2.17;;;24.60;99.90;;;;;;5032606;28;21017;-75
2022/07/29 12:57:52;;;;;;;11.63;3.15;;;24.80;99.90;;;;;;5030737;28;20084;-74
2022/07/29 13:00:23;;;;;;;5.90;2.22;;;25.00;99.90;;;;;;5043361;28;20052;-72